AGROMETEOROLOŠKI PORTAL

vinorodna pokrajina

Temelj dobrega kmetovanja

Izpis lokacij s podatki meritev in opazovanj za vse lokacije

Vir: ARSO
TODO Caption
Pregled minimalnih nočnih temperatur med 04.12.2022 od 22:00 in 05.12.2022 do 10:00 (zapri pregled)
Zahodna Slovenija
Lokacija Nadmorska višina Lega Višina meritve senzorja Datum in čas meritve Dosežena min. temperatura RH Veter (m/s) Temp. rosišča Temp. mokrega termometra
Bilje UVHVVR 55 m 2 m 30.9.2022 03:30 12,3 100,0 12,3 12,3
Čelje 496 m V 2 m 30.9.2022 04:30 10,1 98,4 9,9 10,0
Dragonja 34 m S 2 m 30.9.2022 07:00 14,2 92,3 13,0 13,5
Dutovlje 316 m J 2 m 30.9.2022 06:00 10,9 99,5 10,8 10,9
Komen 269 m J 2 m 30.9.2022 02:30 11,3 96,5 10,8 11,0
Kozana 182 m S 2 m 30.9.2022 04:30 12,1 99,5 2,6 12,0 12,1
Miren. 47 m S 2 m 30.9.2022 05:00 12,3 100,0 0,6 12,3 12,3
Potoče 75 m 2 m 30.9.2022 03:30 12,1 97,2 11,7 11,9
Potoki 302 m J 2 m 30.9.2022 04:00 10,8 99,9 10,8 10,8
Pradisiol 3 m S 2 m 30.9.2022 07:00 13,2 97,9 12,9 13,0
Puče 275 m J 2 m 30.9.2022 04:00 12,7 99,3 2,1 12,6 12,7
Purisima 50 m J 2 m 30.9.2022 04:00 13,2 87,0 11,1 12,0
Slap 112 m 2 m 30.9.2022 03:30 12,1 98,0 2,5 11,8 11,9
Sužid 231 m 2 m 30.9.2022 04:30 11,2 99,8 11,2 11,2
Šlovrenc 92 m JZ 2 m 30.9.2022 05:00 12,6 100,0 12,6 12,6
Truške 230 m 2 m 30.9.2022 07:00 11,8 97,6 11,4 11,6
Vipolže 59 m 2 m 30.9.2022 03:30 13,2 87,6 2,9 11,2 12,1
Višnjevik 223 m V 2 m 30.9.2022 03:30 12,0 100,0 12,0 12,0
Vogrsko 62 m 2 m 30.9.2022 02:00 12,9 98,6 3,5 12,7 12,8
Zavrhek 340 m J 2 m 30.9.2022 05:30 11,0 98,7 10,8 10,9
BILJE ARSO 55 m 2 m 30.9.2022 02:30 13,0 96,0 6,1 12,4 12,7
BILJE ARSO 55 m 5 cm 30.9.2022 02:30 12,7 96,0 6,1 12,1 12,4
Bovec - letališče ARSO 438 m 2 m 30.9.2022 04:30 9,2 97,0 0,0 8,8 9,0
GODNJE ARSO 315 m 2 m 30.9.2022 04:30 11,3 95,0 6,9 10,5 10,9
Ilirska Bistrica - Koseze ARSO 415 m 2 m 30.9.2022 05:30 10,4 96,0 1,9 9,8 10,1
KUBED ARSO 236 m 2 m 30.9.2022 07:00 12,0 95,0 11,2 11,6
PODNANOS - ARSO 153 m 2 m 30.9.2022 06:30 12,3 94,0 1,9 11,4 11,8
Portorož-letališče ARSO 0 m 2 m 30.9.2022 07:30 14,8 87,0 5,3 12,7 13,5
POSTOJNA ARSO 534 m 2 m 30.9.2022 07:30 9,9 97,0 1,7 9,5 9,7
ŠKOCJAN ARSO 420 m 2 m 30.9.2022 05:30 10,6 99,0 5,0 10,5 10,5
VEDRIJAN ARSO 228 m 2 m 30.9.2022 04:00 12,4 89,0 10,6 11,4
ZADLOG - ARSO 716 m 2 m 30.9.2022 03:30 8,7 98,0 8,4 8,6
Beneša - Ankaran (ZRSKP) 62 m 2 m 30.9.2022 07:30 12,9 98,4 1,9 12,7 12,8
Mala Seva - Izola (ZRSKP) 90 m 2 m 30.9.2022 05:30 12,6 100,0 2,6 12,6 12,6
Semedela - Markovec (ZRSKP) 149 m 2 m 30.9.2022 07:00 12,3 99,4 2,2 12,2 12,3
Kobarid DRSI 242 m 2 m 30.9.2022 03:30 11,0 14,0 0,3 -15,4 2,5
Koper DRSI 5 m 2 m 30.9.2022 04:00 16,0 90,0 1,1 14,4 15,0
Lazaret DRSI 2 m 2 m 30.9.2022 03:00 14,0 90,0 5,8 12,4 13,1
Valeta DRSI 100 m 2 m 30.9.2022 03:30 19,0 98,0 4,2 18,7 18,8
Cerovo 157 m 2 m 30.9.2022 04:00 11,8 99,0 11,7 11,7
Hruševlje 105 m 2 m 30.9.2022 05:00 12,3 95,7 11,6 11,9
Plešivo 109 m 2 m 30.9.2022 04:00 12,6 92,4 2,1 11,4 11,9
Osrednja Slovenija
Lokacija Nadmorska višina Lega Višina meritve senzorja Datum in čas meritve Dosežena min. temperatura RH Veter (m/s) Temp. rosišča Temp. mokrega termometra
Borovnica 288 m 2 m 30.9.2022 07:30 10,7 99,9 0,1 10,7 10,7
Borovnica 288 m 2 m 30.9.2022 07:30 10,7 99,9 0,1 10,7 10,7
Brdo pri Lukovici 368 m J 2 m 30.9.2022 04:30 10,0 100,0 10,0 10,0
Češnjevek (Cerklje) 405 m S 2 m 30.9.2022 03:30 10,1 99,8 10,1 10,1
Gabrska Gora 487 m 2 m 30.9.2022 01:00 10,0 100,0 10,0 10,0
Jablje 302 m S 20 cm 30.9.2022 04:00 10,4 100,0 1,1 10,4 10,4
Jablje 302 m S 2 m 30.9.2022 04:00 10,5 100,0 1,1 10,5 10,5
Kamnik 377 m JV 2 m 30.9.2022 00:30 8,8 98,4 8,6 8,7
Kovor 514 m 2 m 29.9.2022 23:00 9,6 99,9 9,6 9,6
Kovor 514 m 20 cm 29.9.2022 23:00 9,7 99,9 9,7 9,7
Ljubljana KIS 297 m S 2 m 29.9.2022 23:30 10,8 98,0 10,5 10,6
Podbrezje 456 m JV 2 m 29.9.2022 23:00 9,9 100,0 9,9 9,9
Resje 503 m 2 m 29.9.2022 23:00 9,7 99,9 9,7 9,7
Šentjakob 279 m 20 cm 30.9.2022 03:00 10,5 99,9 10,5 10,5
Šentjakob 279 m 2 m 30.9.2022 04:30 10,6 99,9 10,6 10,6
Vnajnarje 667 m S 2 m 30.9.2022 03:00 9,2 99,0 9,1 9,1
Znojile pri Krki 331 m JV 2 m 29.9.2022 23:00 11,2 99,5 11,1 11,2
Žabnica (Dorfarje) 372 m 2 m 30.9.2022 04:30 9,7 99,9 9,7 9,7
BOHINJSKA ČEŠNJICA - ARSO 596 m 2 m 30.9.2022 04:00 9,8 96,0 9,2 9,5
BORŠT PRI GORENJI VASI ARSO 532 m 2 m 30.9.2022 07:00 9,5 98,0 1,1 9,2 9,4
BRNIK - LETALIŠČE - ARSO 364 m 2 m 30.9.2022 04:00 10,0 99,0 1,4 9,9 9,9
Lesce 515 m 2 m 30.9.2022 03:30 9,8 97,0 1,9 9,4 9,6
LITIJA ARSO 263 m 2 m 29.9.2022 23:00 10,9 95,0 10,1 10,5
Ljubljana - Bežigrad ARSO 299 m 2 m 29.9.2022 23:00 11,0 95,0 2,2 10,2 10,6
LOGATEC - ARSO 486 m 2 m 30.9.2022 07:30 9,7 96,0 9,1 9,4
NOVA VAS - BLOKE - ARSO 718 m 2 m 30.9.2022 07:00 9,2 96,0 8,6 8,9
VRHNIKA ARSO 367 m 2 m 30.9.2022 07:30 10,4 97,0 1,7 10,0 10,2
Jeprca DRSI 360 m 2 m 30.9.2022 05:00 9,9 99,0 0,9 9,8 9,8
Kranj - Delavski most DRSI 380 m 2 m 30.9.2022 03:00 10,1 98,0 0,6 9,8 9,9
Krtina 1 DRSI 308 m 2 m 30.9.2022 03:00 10,0 100,0 1,9 10,0 10,0
Moste pri Komendi DRSI 331 m 2 m 29.9.2022 23:00 11,0 100,0 0,0 11,0 11,0
Podvin DRSI 489 m 2 m 29.9.2022 23:00 6,0 100,0 1,1 6,0 6,0
Vir pri Domžalah DRSI 308 m 2 m 29.9.2022 23:00 11,0 99,0 1,4 10,9 10,9
Celjska in Koroška regija
Lokacija Nadmorska višina Lega Višina meritve senzorja Datum in čas meritve Dosežena min. temperatura RH Veter (m/s) Temp. rosišča Temp. mokrega termometra
Bistrica ob Sotli 324 m J 2 m 29.9.2022 23:00 9,6 100,0 9,6 9,6
Braslovče (Pšaker) 322 m JV 2 m 29.9.2022 23:00 9,5 99,9 0,1 9,5 9,5
Črnova (Gradišnik) 453 m JZ 2 m 29.9.2022 23:30 8,8 100,0 8,8 8,8
Gabernik-Rogaška 379 m JZ 2 m 29.9.2022 23:00 9,4 96,4 8,9 9,1
Kasaze (Mirosan) 279 m S 2 m 30.9.2022 04:30 10,0 100,0 1,0 10,0 10,0
Latkova vas 279 m S 2 m 29.9.2022 23:00 9,9 100,0 0,9 9,9 9,9
Latkova vas 279 m S 50 cm 30.9.2022 07:00 9,6 100,0 1,3 9,6 9,6
Ojstriška vas 308 m Z 2 m 30.9.2022 04:00 9,5 99,6 9,4 9,5
Radlje ob Dravi 352 m 2 m 30.9.2022 06:00 9,4 99,8 9,4 9,4
Slom 279 m S 2 m 29.9.2022 23:00 10,0 100,0 10,0 10,0
Slovenske Konjice 359 m SV 2 m 30.9.2022 00:00 9,5 99,6 9,4 9,5
Škofja vas 246 m 2 m 30.9.2022 06:00 9,7 100,0 0,0 9,7 9,7
Virštanj 368 m S 2 m 29.9.2022 23:00 9,5 99,9 9,5 9,5
Žalec (PDC) 254 m S 2 m 30.9.2022 06:30 10,1 100,0 0,4 10,1 10,1
Celje - Medlog ARSO 241 m S 2 m 29.9.2022 23:00 10,1 98,0 1,1 9,8 9,9
PODČETRTEK - ATOMSKE TOPLICE ARSO 201 m 2 m 29.9.2022 23:00 10,2 98,0 2,2 9,9 10,0
RAVNE NA KOROŠKEM - ARSO 394 m 2 m 30.9.2022 06:00 9,4 96,0 3,6 8,8 9,1
ROGAŠKA SLATINA ARSO 289 m 2 m 29.9.2022 23:00 9,8 97,0 1,1 9,4 9,6
ŠMARTNO PRI SLOVENJ GRADCU ARSO 442 m 2 m 30.9.2022 05:30 8,9 97,0 8,5 8,7
ŠMARTNO PRI SLOVENJ GRADCU ARSO 442 m 5 cm 30.9.2022 05:30 7,9 97,0 7,5 7,7
Črnova DRSI 304 m 2 m 30.9.2022 00:00 9,4 90,0 0,3 7,9 8,6
Radlje DRSI 355 m 2 m 30.9.2022 07:00 8,8 97,0 0,8 8,4 8,6
Rimske Toplice DRSI 210 m 2 m 29.9.2022 23:30 10,4 90,0 0,7 8,8 9,6
Jugovzhodna Slovenija
Lokacija Nadmorska višina Lega Višina meritve senzorja Datum in čas meritve Dosežena min. temperatura RH Veter (m/s) Temp. rosišča Temp. mokrega termometra
Artiče 201 m J 2 m 29.9.2022 23:00 10,3 100,0 10,3 10,3
Bizeljsko 347 m J 2 m 30.9.2022 00:00 9,7 95,9 9,1 9,4
Blanca 278 m JZ 2 m 29.9.2022 23:00 10,1 100,0 10,1 10,1
Črnomelj 253 m JZ 2 m 30.9.2022 04:30 11,8 99,9 11,8 11,8
Drašiči 244 m J 2 m 30.9.2022 03:00 11,7 100,0 11,7 11,7
Kostanjevica na Krki 165 m 2 m 30.9.2022 01:30 10,9 100,0 10,9 10,9
Kostanjevica na Krki 165 m 20 cm 30.9.2022 00:00 11,1 100,0 11,1 11,1
Mali Podlog (Krško) 158 m 2 m 29.9.2022 23:00 11,1 99,7 3,8 11,1 11,1
Otočec 198 m J 2 m 29.9.2022 23:00 10,8 98,4 10,6 10,7
Rodine pri Trebnjem APS 284 m J 2 m 30.9.2022 07:00 10,5 100,0 10,5 10,5
Sremič 466 m JZ 2 m 30.9.2022 03:00 9,3 99,9 9,3 9,3
Šentjernej APS 231 m JV 2 m 30.9.2022 00:30 10,7 100,0 0,8 10,7 10,7
CERKLJE - LETALIŠČE ARSO 155 m 2 m 30.9.2022 01:30 10,5 96,0 3,6 9,9 10,2
ČRNOMELJ - DOBLIČE ARSO 155 m 2 m 30.9.2022 05:00 12,5 96,0 1,4 11,9 12,2
HOČKO POHORJE - ARSO 585 m 2 m 29.9.2022 23:00 8,4 97,0 8,0 8,2
KRŠKO - NEK ARSO 155 m 2 m 29.9.2022 23:00 11,1 100,0 3,3 11,1 11,1
MALKOVEC ARSO 397 m 2 m 29.9.2022 23:00 10,1 97,0 1,7 9,7 9,9
METLIKA ARSO 166 m 2 m 30.9.2022 06:00 12,2 98,0 11,9 12,0
NOVO MESTO ARSO 220 m 2 m 30.9.2022 00:30 10,7 97,0 6,1 10,2 10,5
NOVO MESTO ARSO 220 m 5 cm 29.9.2022 23:00 10,8 97,0 5,6 10,3 10,6
TREBNJE ARSO 303 m 2 m 29.9.2022 23:00 10,8 96,0 10,2 10,5
Krško DRSI 167 m 2 m 29.9.2022 23:00 11,0 100,0 1,1 11,0 11,0
Miklavž DRSI 257 m 2 m 29.9.2022 23:00 11,0 100,0 0,8 11,0 11,0
Trebnje DRSI 270 m 2 m 30.9.2022 05:00 10,8 90,0 0,7 9,2 10,0
Severovzhodna Slovenija
Lokacija Nadmorska višina Lega Višina meritve senzorja Datum in čas meritve Dosežena min. temperatura RH Veter (m/s) Temp. rosišča Temp. mokrega termometra
Dravinjski vrh 304 m Z 2 m 30.9.2022 02:00 9,6 100,0 1,4 9,6 9,6
Gačnik METOS 297 m 2 m 29.9.2022 23:00 9,7 99,9 0,2 9,7 9,7
Godemarci 212 m JV 2 m 30.9.2022 02:30 10,2 99,6 10,1 10,2
Godemarci 212 m JV 50 cm 30.9.2022 01:00 10,6 99,6 10,5 10,6
Litmerk 314 m JZ 2 m 30.9.2022 06:00 8,2 99,9 8,2 8,2
Maribor - BTŠ 276 m J 2 m 29.9.2022 23:00 9,9 99,6 1,0 9,8 9,9
Maribor - BTŠ 276 m J 50 cm 29.9.2022 23:00 9,6 99,6 1,0 9,5 9,6
Meranovo 501 m JV 2 m 29.9.2022 23:00 8,5 99,9 8,5 8,5
Moškanjci 213 m 2 m 30.9.2022 02:30 10,3 71,6 1,3 5,4 7,8
Pohorski dvor 313 m V 2 m 29.9.2022 23:00 9,6 99,4 9,5 9,6
Ritoznoj 402 m JV 2 m 29.9.2022 23:00 9,0 99,9 9,0 9,0
Savci 245 m JZ 2 m 30.9.2022 00:30 10,1 100,0 10,1 10,1
Selnica ob Dravi 311 m SV 2 m 30.9.2022 07:30 9,6 100,0 0,7 9,6 9,6
Selo 299 m J 2 m 29.9.2022 23:00 9,7 99,9 9,7 9,7
Stročja vas 240 m SV 2 m 29.9.2022 23:00 10,1 53,3 0,5 1,1 5,9
Špičnik 338 m 2 m 30.9.2022 04:00 9,4 100,0 9,4 9,4
Vidonci 337 m JV 2 m 29.9.2022 23:00 9,5 100,0 9,5 9,5
Vitomarci 299 m SV 2 m 29.9.2022 23:30 9,7 99,7 9,7 9,7
Zbigovci 299 m Z 2 m 29.9.2022 23:00 9,6 99,9 9,6 9,6
Zimica 296 m Z 2 m 29.9.2022 23:00 9,6 99,9 9,6 9,6
GAČNIK ARSO 291 m 2 m 29.9.2022 23:00 9,8 97,0 1,9 9,4 9,6
JERUZALEM - ARSO 335 m 2 m 29.9.2022 23:00 9,6 99,0 9,5 9,5
LENDAVA - TERME ARSO 161 m 2 m 29.9.2022 23:00 10,9 97,0 0,8 10,4 10,7
MARIBOR - LETALIŠČE ARSO 264 m 2 m 29.9.2022 23:00 10,0 97,0 3,6 9,6 9,8
MARIBOR - VRBANSKI PLATO ARSO 274 m 2 m 29.9.2022 23:00 9,9 97,0 1,9 9,5 9,7
MARINČA VAS - ARSO 272 m 2 m 30.9.2022 06:00 11,2 97,0 10,7 11,0
MURSKA SOBOTA - RAKIČAN ARSO 184 m 2 m 29.9.2022 23:00 10,7 97,0 1,7 10,2 10,5
MURSKA SOBOTA - RAKIČAN ARSO 184 m 5 cm 29.9.2022 23:00 10,9 97,0 1,7 10,4 10,7
PTUJ - ARSO 222 m 2 m 29.9.2022 23:00 10,4 96,0 2,2 9,8 10,1
SOTINSKI BREG ARSO 415 m 2 m 30.9.2022 01:00 8,9 100,0 2,8 8,9 8,9
Šentilj DRSI 300 m 2 m 29.9.2022 23:00 10,0 100,0 1,1 10,0 10,0
Postaje, katerih podatke prikazujemo na portalu, so postaje proizvajalca Adcon Telemetry.

IZJAVA O OMEJITVI ODGOVORNOSTI: Uprava Republike Slovenije za varno hrano, veterinarstvo in varstvo rastlin (Uprava) skupaj z Opazovalno napovedovalno službo zdravstvenega varstva rastlin skrbi za nemoteno delovanje in vzdrževanje meteoroloških podatkov iz mreže agrometeoroloških postaj (Adcon Telemety). Agrometeorološki podatki, ki so objavljeni na tej strani, so zgolj informativne narave. Za morebitne vsebinske napake, do katerih lahko pride zaradi tehničnih težav pri vzdrževanju mreže, napak merilne opreme ali drugih nepredvidljivih vzrokov, napak pri vnosu, posodabljanja vsebin, Uprava ne prevzema odgovornosti, kakor tudi ne zaradi nepravilnega delovanja in/ali nedostopnosti vsebine teh spletnih strani. Uprava tudi ne prevzema odgovornosti za kakršnokoli neposredno ali posredno izgubo oziroma škodo, materialno in nematerialno, ki bi nastala zaradi dostopa, uporabe ali odločitve, sprejete na podlagi informacij, objavljenih na teh spletnih straneh, kakor tudi ne zaradi nepravilnega delovanja in/ali nedostopnosti vsebine teh spletnih strani. Uprava si pridržuje pravico do spremembe oziroma umika vsebine, deloma ali v celoti, brez predhodne najave. Vsak poskus nepooblaščenega spreminjanja ali poškodovanja spletnih strani, kot tudi nepooblaščen dostop do informacij mimo spletnih strani in do drugih vsebin, je kaznivo dejanje. Pri uporabi vsebin, objavljenih na portalu, je potrebno navesti vir podatkov (UVHVVR, Agrometeorološki portal Slovenije) in upoštevati avtorske pravice.